sensor_id;sensor_type;location;lat;lon;timestamp;pressure;altitude;pressure_sealevel;temperature;humidity
23616;BME280;11985;49.404;7.734;2023-03-03T00:01:01;97507.03;;;-1.56;100.00
23616;BME280;11985;49.404;7.734;2023-03-03T00:06:04;97511.22;;;-1.65;100.00
23616;BME280;11985;49.404;7.734;2023-03-03T00:11:06;97508.16;;;-1.70;100.00
23616;BME280;11985;49.404;7.734;2023-03-03T00:16:20;97511.25;;;-1.76;100.00
23616;BME280;11985;49.404;7.734;2023-03-03T00:21:30;97512.44;;;-1.80;100.00
23616;BME280;11985;49.404;7.734;2023-03-03T00:26:35;97516.09;;;-1.82;100.00
23616;BME280;11985;49.404;7.734;2023-03-03T00:31:39;97513.50;;;-1.82;100.00
23616;BME280;11985;49.404;7.734;2023-03-03T00:36:41;97516.44;;;-1.87;100.00
23616;BME280;11985;49.404;7.734;2023-03-03T00:41:42;97519.03;;;-1.87;100.00
23616;BME280;11985;49.404;7.734;2023-03-03T00:46:45;97523.56;;;-1.79;100.00
23616;BME280;11985;49.404;7.734;2023-03-03T00:51:47;97515.91;;;-1.70;100.00
23616;BME280;11985;49.404;7.734;2023-03-03T00:56:49;97521.53;;;-1.65;100.00
23616;BME280;11985;49.404;7.734;2023-03-03T01:01:52;97521.53;;;-1.65;100.00
23616;BME280;11985;49.404;7.734;2023-03-03T01:06:54;97528.00;;;-1.70;100.00
23616;BME280;11985;49.404;7.734;2023-03-03T01:11:55;97529.31;;;-1.76;100.00
23616;BME280;11985;49.404;7.734;2023-03-03T01:16:58;97516.59;;;-1.68;100.00
23616;BME280;11985;49.404;7.734;2023-03-03T01:22:00;97515.66;;;-1.67;98.13
23616;BME280;11985;49.404;7.734;2023-03-03T01:27:02;97525.56;;;-1.72;97.83
23616;BME280;11985;49.404;7.734;2023-03-03T01:32:05;97523.22;;;-1.75;97.29
23616;BME280;11985;49.404;7.734;2023-03-03T01:37:06;97521.81;;;-1.79;96.88
23616;BME280;11985;49.404;7.734;2023-03-03T01:42:08;97523.25;;;-1.54;95.17
23616;BME280;11985;49.404;7.734;2023-03-03T01:47:13;97522.88;;;-1.28;93.24
23616;BME280;11985;49.404;7.734;2023-03-03T01:52:22;97511.19;;;-1.33;93.02
23616;BME280;11985;49.404;7.734;2023-03-03T01:57:30;97520.56;;;-1.31;92.82
23616;BME280;11985;49.404;7.734;2023-03-03T02:02:35;97505.69;;;-1.39;92.59
23616;BME280;11985;49.404;7.734;2023-03-03T02:07:37;97501.78;;;-1.54;92.86
23616;BME280;11985;49.404;7.734;2023-03-03T02:12:41;97510.50;;;-1.67;93.47
23616;BME280;11985;49.404;7.734;2023-03-03T02:17:45;97503.97;;;-1.71;94.08
23616;BME280;11985;49.404;7.734;2023-03-03T02:22:50;97507.41;;;-1.81;94.25
23616;BME280;11985;49.404;7.734;2023-03-03T02:27:55;97510.69;;;-1.91;94.38
23616;BME280;11985;49.404;7.734;2023-03-03T02:32:56;97510.13;;;-1.94;95.51
23616;BME280;11985;49.404;7.734;2023-03-03T02:38:03;97512.09;;;-1.87;95.63
23616;BME280;11985;49.404;7.734;2023-03-03T02:43:10;97510.72;;;-1.58;94.26
23616;BME280;11985;49.404;7.734;2023-03-03T02:48:11;97506.72;;;-1.63;94.07
23616;BME280;11985;49.404;7.734;2023-03-03T02:53:13;97506.28;;;-1.68;94.10
23616;BME280;11985;49.404;7.734;2023-03-03T02:58:16;97511.13;;;-1.74;93.80
23616;BME280;11985;49.404;7.734;2023-03-03T03:03:18;97504.81;;;-1.81;93.39
23616;BME280;11985;49.404;7.734;2023-03-03T03:08:19;97502.00;;;-1.90;94.10
23616;BME280;11985;49.404;7.734;2023-03-03T03:13:23;97507.78;;;-1.97;93.51
23616;BME280;11985;49.404;7.734;2023-03-03T03:18:25;97508.28;;;-2.03;94.18
23616;BME280;11985;49.404;7.734;2023-03-03T03:23:27;97512.13;;;-1.98;94.13
23616;BME280;11985;49.404;7.734;2023-03-03T03:28:30;97512.50;;;-2.02;94.21
23616;BME280;11985;49.404;7.734;2023-03-03T03:33:34;97516.72;;;-2.13;94.21
23616;BME280;11985;49.404;7.734;2023-03-03T03:38:36;97514.75;;;-2.20;94.73
23616;BME280;11985;49.404;7.734;2023-03-03T03:43:39;97509.25;;;-2.27;95.02
23616;BME280;11985;49.404;7.734;2023-03-03T03:48:41;97511.59;;;-2.35;95.00
23616;BME280;11985;49.404;7.734;2023-03-03T03:53:43;97514.31;;;-2.36;95.27
23616;BME280;11985;49.404;7.734;2023-03-03T03:58:46;97507.63;;;-2.39;95.27
23616;BME280;11985;49.404;7.734;2023-03-03T04:03:48;97501.75;;;-2.41;95.36
23616;BME280;11985;49.404;7.734;2023-03-03T04:08:49;97508.81;;;-2.43;96.10
23616;BME280;11985;49.404;7.734;2023-03-03T04:13:52;97510.31;;;-2.52;96.23
23616;BME280;11985;49.404;7.734;2023-03-03T04:18:54;97522.75;;;-2.57;96.08
23616;BME280;11985;49.404;7.734;2023-03-03T04:23:55;97526.16;;;-2.56;96.97
23616;BME280;11985;49.404;7.734;2023-03-03T04:28:58;97523.94;;;-2.61;97.48
23616;BME280;11985;49.404;7.734;2023-03-03T04:34:00;97519.13;;;-2.66;97.44
23616;BME280;11985;49.404;7.734;2023-03-03T04:39:02;97518.66;;;-2.71;97.40
23616;BME280;11985;49.404;7.734;2023-03-03T04:44:05;97519.81;;;-2.75;97.47
23616;BME280;11985;49.404;7.734;2023-03-03T04:49:07;97524.75;;;-2.72;98.47
23616;BME280;11985;49.404;7.734;2023-03-03T04:54:08;97521.00;;;-2.68;98.28
23616;BME280;11985;49.404;7.734;2023-03-03T04:59:11;97533.19;;;-2.47;98.46
23616;BME280;11985;49.404;7.734;2023-03-03T05:04:13;97532.84;;;-2.31;97.87
23616;BME280;11985;49.404;7.734;2023-03-03T05:09:14;97538.56;;;-2.28;97.14
23616;BME280;11985;49.404;7.734;2023-03-03T05:14:17;97527.53;;;-2.30;96.55
23616;BME280;11985;49.404;7.734;2023-03-03T05:19:19;97543.28;;;-2.22;96.96
23616;BME280;11985;49.404;7.734;2023-03-03T05:24:20;97547.69;;;-2.13;96.75
23616;BME280;11985;49.404;7.734;2023-03-03T05:29:24;97547.00;;;-2.03;95.78
23616;BME280;11985;49.404;7.734;2023-03-03T05:34:27;97544.06;;;-1.99;95.37
23616;BME280;11985;49.404;7.734;2023-03-03T05:39:28;97545.34;;;-2.04;94.94
23616;BME280;11985;49.404;7.734;2023-03-03T05:44:31;97550.75;;;-2.07;94.39
23616;BME280;11985;49.404;7.734;2023-03-03T05:49:33;97563.78;;;-2.09;94.77
23616;BME280;11985;49.404;7.734;2023-03-03T05:54:39;97563.66;;;-2.19;94.96
23616;BME280;11985;49.404;7.734;2023-03-03T05:59:42;97573.03;;;-2.29;94.61
23616;BME280;11985;49.404;7.734;2023-03-03T06:04:44;97585.94;;;-2.40;95.05
23616;BME280;11985;49.404;7.734;2023-03-03T06:09:46;97592.28;;;-2.44;95.00
23616;BME280;11985;49.404;7.734;2023-03-03T06:14:49;97592.97;;;-2.42;95.76
23616;BME280;11985;49.404;7.734;2023-03-03T06:19:50;97588.31;;;-2.37;95.73
23616;BME280;11985;49.404;7.734;2023-03-03T06:24:52;97601.53;;;-2.30;96.05
23616;BME280;11985;49.404;7.734;2023-03-03T06:29:55;97600.47;;;-2.28;95.01
23616;BME280;11985;49.404;7.734;2023-03-03T06:34:56;97601.75;;;-2.33;95.25
23616;BME280;11985;49.404;7.734;2023-03-03T06:39:58;97603.66;;;-2.35;95.64
23616;BME280;11985;49.404;7.734;2023-03-03T06:45:01;97599.31;;;-2.35;96.54
23616;BME280;11985;49.404;7.734;2023-03-03T06:50:03;97606.34;;;-2.37;96.09
23616;BME280;11985;49.404;7.734;2023-03-03T06:55:11;97615.72;;;-2.36;96.12
23616;BME280;11985;49.404;7.734;2023-03-03T07:00:17;97606.72;;;-2.30;96.75
23616;BME280;11985;49.404;7.734;2023-03-03T07:05:21;97622.53;;;-2.24;97.01
23616;BME280;11985;49.404;7.734;2023-03-03T07:10:26;97629.81;;;-2.06;98.29
23616;BME280;11985;49.404;7.734;2023-03-03T07:15:33;97635.75;;;-1.83;99.08
23616;BME280;11985;49.404;7.734;2023-03-03T07:20:38;97643.03;;;-1.55;99.88
23616;BME280;11985;49.404;7.734;2023-03-03T07:25:40;97642.38;;;-1.36;100.00
23616;BME280;11985;49.404;7.734;2023-03-03T07:30:44;97647.03;;;-1.19;100.00
23616;BME280;11985;49.404;7.734;2023-03-03T07:35:45;97652.81;;;-0.94;100.00
23616;BME280;11985;49.404;7.734;2023-03-03T07:40:48;97653.56;;;-0.62;100.00
23616;BME280;11985;49.404;7.734;2023-03-03T07:45:52;97661.47;;;-0.21;100.00
23616;BME280;11985;49.404;7.734;2023-03-03T07:50:55;97658.22;;;0.17;100.00
23616;BME280;11985;49.404;7.734;2023-03-03T07:55:57;97655.00;;;0.44;100.00
23616;BME280;11985;49.404;7.734;2023-03-03T08:01:27;97660.97;;;0.75;100.00
23616;BME280;11985;49.404;7.734;2023-03-03T08:06:41;97673.94;;;0.94;100.00
23616;BME280;11985;49.404;7.734;2023-03-03T08:11:49;97674.22;;;1.11;98.64
23616;BME280;11985;49.404;7.734;2023-03-03T08:16:54;97671.47;;;1.31;97.12
23616;BME280;11985;49.404;7.734;2023-03-03T08:22:00;97678.59;;;1.39;95.60
23616;BME280;11985;49.404;7.734;2023-03-03T08:27:03;97678.06;;;1.45;94.92
23616;BME280;11985;49.404;7.734;2023-03-03T08:32:06;97680.34;;;1.58;94.00
23616;BME280;11985;49.404;7.734;2023-03-03T08:37:08;97685.13;;;1.72;92.88
23616;BME280;11985;49.404;7.734;2023-03-03T08:42:09;97688.25;;;1.76;91.62
23616;BME280;11985;49.404;7.734;2023-03-03T08:47:12;97693.97;;;1.89;90.54
23616;BME280;11985;49.404;7.734;2023-03-03T08:52:14;97692.66;;;2.13;89.91
23616;BME280;11985;49.404;7.734;2023-03-03T08:57:16;97699.31;;;2.25;88.61
23616;BME280;11985;49.404;7.734;2023-03-03T09:02:19;97704.31;;;2.36;87.83
23616;BME280;11985;49.404;7.734;2023-03-03T09:07:21;97711.38;;;2.53;86.59
23616;BME280;11985;49.404;7.734;2023-03-03T09:12:28;97708.97;;;2.70;86.17
23616;BME280;11985;49.404;7.734;2023-03-03T09:17:34;97696.59;;;2.99;85.34
23616;BME280;11985;49.404;7.734;2023-03-03T09:22:37;97707.16;;;3.15;84.29
23616;BME280;11985;49.404;7.734;2023-03-03T09:27:39;97709.53;;;3.27;83.32
23616;BME280;11985;49.404;7.734;2023-03-03T09:32:42;97720.03;;;3.35;82.89
23616;BME280;11985;49.404;7.734;2023-03-03T09:37:43;97714.09;;;3.42;82.62
23616;BME280;11985;49.404;7.734;2023-03-03T09:42:58;97725.09;;;3.54;82.45
23616;BME280;11985;49.404;7.734;2023-03-03T09:48:20;97720.63;;;3.64;82.06
23616;BME280;11985;49.404;7.734;2023-03-03T09:53:36;97722.00;;;3.77;81.50
23616;BME280;11985;49.404;7.734;2023-03-03T09:58:52;97721.16;;;3.94;81.22
23616;BME280;11985;49.404;7.734;2023-03-03T10:04:14;97724.53;;;4.12;80.12
23616;BME280;11985;49.404;7.734;2023-03-03T10:09:40;97739.94;;;4.23;79.41
23616;BME280;11985;49.404;7.734;2023-03-03T10:14:56;97725.69;;;4.44;78.00
23616;BME280;11985;49.404;7.734;2023-03-03T10:20:21;97730.59;;;4.47;77.22
23616;BME280;11985;49.404;7.734;2023-03-03T10:25:40;97731.66;;;4.70;76.67
23616;BME280;11985;49.404;7.734;2023-03-03T10:30:50;97745.13;;;4.92;76.01
23616;BME280;11985;49.404;7.734;2023-03-03T10:36:06;97748.09;;;5.05;75.26
23616;BME280;11985;49.404;7.734;2023-03-03T10:41:44;97749.06;;;5.04;74.79
23616;BME280;11985;49.404;7.734;2023-03-03T10:47:18;97739.81;;;5.18;74.55
23616;BME280;11985;49.404;7.734;2023-03-03T10:52:37;97744.56;;;5.30;74.01
23616;BME280;11985;49.404;7.734;2023-03-03T10:57:45;97755.38;;;5.44;73.20
23616;BME280;11985;49.404;7.734;2023-03-03T11:03:06;97762.06;;;5.54;73.16
23616;BME280;11985;49.404;7.734;2023-03-03T11:08:20;97753.13;;;5.98;72.01
23616;BME280;11985;49.404;7.734;2023-03-03T11:13:32;97745.44;;;6.21;70.78
23616;BME280;11985;49.404;7.734;2023-03-03T11:18:48;97734.78;;;6.30;68.84
23616;BME280;11985;49.404;7.734;2023-03-03T11:24:01;97730.16;;;6.49;67.75
23616;BME280;11985;49.404;7.734;2023-03-03T11:29:15;97729.47;;;6.55;66.80
23616;BME280;11985;49.404;7.734;2023-03-03T11:34:36;97728.84;;;6.61;66.10
23616;BME280;11985;49.404;7.734;2023-03-03T11:39:44;97731.00;;;6.88;65.62
23616;BME280;11985;49.404;7.734;2023-03-03T11:44:49;97722.78;;;7.00;64.15
23616;BME280;11985;49.404;7.734;2023-03-03T11:49:55;97724.72;;;6.98;63.43
23616;BME280;11985;49.404;7.734;2023-03-03T11:55:05;97723.59;;;7.00;63.24
23616;BME280;11985;49.404;7.734;2023-03-03T12:00:21;97726.53;;;6.97;62.20
23616;BME280;11985;49.404;7.734;2023-03-03T12:05:37;97716.16;;;7.12;62.37
23616;BME280;11985;49.404;7.734;2023-03-03T12:10:43;97710.00;;;7.51;61.44
23616;BME280;11985;49.404;7.734;2023-03-03T12:15:53;97715.84;;;7.76;60.56
23616;BME280;11985;49.404;7.734;2023-03-03T12:21:08;97710.84;;;7.89;60.56
23616;BME280;11985;49.404;7.734;2023-03-03T12:26:19;97709.94;;;7.97;59.79
23616;BME280;11985;49.404;7.734;2023-03-03T12:31:36;97710.94;;;8.10;59.79
23616;BME280;11985;49.404;7.734;2023-03-03T12:36:49;97706.97;;;8.14;59.53
23616;BME280;11985;49.404;7.734;2023-03-03T12:41:58;97700.63;;;7.94;59.42
23616;BME280;11985;49.404;7.734;2023-03-03T12:47:09;97703.78;;;7.89;59.85
23616;BME280;11985;49.404;7.734;2023-03-03T12:52:24;97692.34;;;7.82;59.97
23616;BME280;11985;49.404;7.734;2023-03-03T12:57:38;97689.75;;;7.82;59.06
23616;BME280;11985;49.404;7.734;2023-03-03T13:02:49;97691.16;;;7.70;59.87
23616;BME280;11985;49.404;7.734;2023-03-03T13:13:27;97683.53;;;7.83;58.33
23616;BME280;11985;49.404;7.734;2023-03-03T13:18:45;97689.88;;;7.66;57.44
23616;BME280;11985;49.404;7.734;2023-03-03T13:23:53;97683.69;;;7.44;57.60
23616;BME280;11985;49.404;7.734;2023-03-03T13:29:08;97686.41;;;7.51;57.92
23616;BME280;11985;49.404;7.734;2023-03-03T13:34:22;97679.81;;;7.55;57.75
23616;BME280;11985;49.404;7.734;2023-03-03T13:39:29;97681.78;;;7.76;57.63
23616;BME280;11985;49.404;7.734;2023-03-03T13:44:38;97673.84;;;7.99;57.91
23616;BME280;11985;49.404;7.734;2023-03-03T13:49:50;97669.25;;;8.30;56.59
23616;BME280;11985;49.404;7.734;2023-03-03T13:55:06;97662.31;;;8.37;56.08
23616;BME280;11985;49.404;7.734;2023-03-03T14:00:21;97667.72;;;8.21;55.62
23616;BME280;11985;49.404;7.734;2023-03-03T14:05:35;97658.50;;;8.25;55.72
23616;BME280;11985;49.404;7.734;2023-03-03T14:10:43;97662.47;;;8.06;55.04
23616;BME280;11985;49.404;7.734;2023-03-03T14:15:54;97657.31;;;7.98;55.35
23616;BME280;11985;49.404;7.734;2023-03-03T14:21:02;97652.69;;;8.15;54.75
23616;BME280;11985;49.404;7.734;2023-03-03T14:26:09;97650.72;;;8.32;54.76
23616;BME280;11985;49.404;7.734;2023-03-03T14:31:17;97649.53;;;8.34;55.33
23616;BME280;11985;49.404;7.734;2023-03-03T14:36:26;97656.25;;;8.52;54.76
23616;BME280;11985;49.404;7.734;2023-03-03T14:41:38;97642.66;;;8.33;54.09
23616;BME280;11985;49.404;7.734;2023-03-03T14:46:44;97641.78;;;8.56;54.45
23616;BME280;11985;49.404;7.734;2023-03-03T14:51:46;97644.41;;;8.41;53.91
23616;BME280;11985;49.404;7.734;2023-03-03T14:56:56;97634.25;;;8.23;54.02
23616;BME280;11985;49.404;7.734;2023-03-03T15:02:30;97627.63;;;8.27;54.43
23616;BME280;11985;49.404;7.734;2023-03-03T15:07:34;97627.38;;;8.37;53.35
23616;BME280;11985;49.404;7.734;2023-03-03T15:12:37;97620.91;;;8.69;53.39
23616;BME280;11985;49.404;7.734;2023-03-03T15:17:43;97624.66;;;8.96;52.16
23616;BME280;11985;49.404;7.734;2023-03-03T15:23:02;97622.81;;;8.96;51.48
23616;BME280;11985;49.404;7.734;2023-03-03T15:28:21;97621.50;;;8.86;51.19
23616;BME280;11985;49.404;7.734;2023-03-03T15:33:29;97619.63;;;8.80;50.96
23616;BME280;11985;49.404;7.734;2023-03-03T15:38:45;97608.78;;;8.68;51.12
23616;BME280;11985;49.404;7.734;2023-03-03T15:43:50;97620.03;;;8.62;51.45
23616;BME280;11985;49.404;7.734;2023-03-03T15:49:08;97620.38;;;8.59;51.11
23616;BME280;11985;49.404;7.734;2023-03-03T16:00:01;97628.97;;;10.85;49.07
23616;BME280;11985;49.404;7.734;2023-03-03T16:05:13;97627.72;;;12.53;45.59
23616;BME280;11985;49.404;7.734;2023-03-03T16:10:21;97628.75;;;12.97;43.69
23616;BME280;11985;49.404;7.734;2023-03-03T16:15:33;97637.56;;;12.33;42.91
23616;BME280;11985;49.404;7.734;2023-03-03T16:20:44;97648.53;;;11.30;43.94
23616;BME280;11985;49.404;7.734;2023-03-03T16:26:02;97642.03;;;10.17;45.27
23616;BME280;11985;49.404;7.734;2023-03-03T16:31:07;97652.00;;;9.44;47.08
23616;BME280;11985;49.404;7.734;2023-03-03T16:36:24;97655.72;;;8.92;48.49
23616;BME280;11985;49.404;7.734;2023-03-03T16:41:37;97658.63;;;8.46;50.12
23616;BME280;11985;49.404;7.734;2023-03-03T16:46:45;97667.06;;;8.04;51.78
23616;BME280;11985;49.404;7.734;2023-03-03T16:51:54;97674.13;;;7.51;54.10
23616;BME280;11985;49.404;7.734;2023-03-03T16:57:04;97682.41;;;7.17;55.92
23616;BME280;11985;49.404;7.734;2023-03-03T17:02:20;97696.38;;;6.70;57.27
23616;BME280;11985;49.404;7.734;2023-03-03T17:07:37;97691.94;;;6.31;58.33
23616;BME280;11985;49.404;7.734;2023-03-03T17:13:07;97716.19;;;6.17;58.94
23616;BME280;11985;49.404;7.734;2023-03-03T17:18:13;97715.38;;;6.17;59.35
23616;BME280;11985;49.404;7.734;2023-03-03T17:23:41;97716.88;;;6.11;59.53
23616;BME280;11985;49.404;7.734;2023-03-03T17:28:51;97719.63;;;5.93;59.95
23616;BME280;11985;49.404;7.734;2023-03-03T17:34:06;97727.81;;;5.74;60.24
23616;BME280;11985;49.404;7.734;2023-03-03T17:44:51;97728.22;;;5.20;62.02
23616;BME280;11985;49.404;7.734;2023-03-03T17:50:04;97743.50;;;4.99;62.63
23616;BME280;11985;49.404;7.734;2023-03-03T17:55:43;97750.81;;;4.79;63.28
23616;BME280;11985;49.404;7.734;2023-03-03T18:00:57;97758.03;;;4.59;64.02
23616;BME280;11985;49.404;7.734;2023-03-03T18:06:14;97759.84;;;4.33;64.70
23616;BME280;11985;49.404;7.734;2023-03-03T18:11:28;97764.31;;;4.14;65.69
23616;BME280;11985;49.404;7.734;2023-03-03T18:16:43;97762.31;;;4.08;66.21
23616;BME280;11985;49.404;7.734;2023-03-03T18:21:54;97777.06;;;4.00;66.95
23616;BME280;11985;49.404;7.734;2023-03-03T18:27:27;97780.59;;;3.90;67.81
23616;BME280;11985;49.404;7.734;2023-03-03T18:32:40;97780.06;;;3.87;68.54
23616;BME280;11985;49.404;7.734;2023-03-03T18:37:43;97782.81;;;3.85;69.07
23616;BME280;11985;49.404;7.734;2023-03-03T18:42:46;97784.78;;;3.83;69.55
23616;BME280;11985;49.404;7.734;2023-03-03T18:48:04;97798.25;;;3.79;70.09
23616;BME280;11985;49.404;7.734;2023-03-03T18:53:21;97789.47;;;3.80;70.70
23616;BME280;11985;49.404;7.734;2023-03-03T18:58:36;97801.06;;;3.67;71.18
23616;BME280;11985;49.404;7.734;2023-03-03T19:03:59;97803.91;;;3.56;72.29
23616;BME280;11985;49.404;7.734;2023-03-03T19:09:03;97802.78;;;3.41;73.32
23616;BME280;11985;49.404;7.734;2023-03-03T19:14:30;97804.78;;;3.47;73.97
23616;BME280;11985;49.404;7.734;2023-03-03T19:19:32;97812.38;;;3.58;74.19
23616;BME280;11985;49.404;7.734;2023-03-03T19:24:34;97807.44;;;3.55;74.27
23616;BME280;11985;49.404;7.734;2023-03-03T19:30:01;97818.53;;;3.39;74.44
23616;BME280;11985;49.404;7.734;2023-03-03T19:35:16;97824.97;;;3.17;74.94
23616;BME280;11985;49.404;7.734;2023-03-03T19:40:24;97822.94;;;2.84;75.51
23616;BME280;11985;49.404;7.734;2023-03-03T19:45:39;97823.34;;;2.42;77.32
23616;BME280;11985;49.404;7.734;2023-03-03T19:50:51;97825.38;;;2.38;78.26
23616;BME280;11985;49.404;7.734;2023-03-03T19:56:05;97832.13;;;2.31;79.54
23616;BME280;11985;49.404;7.734;2023-03-03T20:01:19;97841.75;;;2.11;80.30
23616;BME280;11985;49.404;7.734;2023-03-03T20:06:36;97840.09;;;2.01;81.76
23616;BME280;11985;49.404;7.734;2023-03-03T20:11:53;97836.81;;;1.89;81.76
23616;BME280;11985;49.404;7.734;2023-03-03T20:17:11;97846.78;;;2.03;82.65
23616;BME280;11985;49.404;7.734;2023-03-03T20:22:22;97847.06;;;2.00;82.76
23616;BME280;11985;49.404;7.734;2023-03-03T20:27:33;97843.66;;;1.80;83.34
23616;BME280;11985;49.404;7.734;2023-03-03T20:32:53;97855.09;;;1.58;83.88
23616;BME280;11985;49.404;7.734;2023-03-03T20:38:09;97864.13;;;1.54;85.37
23616;BME280;11985;49.404;7.734;2023-03-03T20:43:21;97853.84;;;1.34;86.23
23616;BME280;11985;49.404;7.734;2023-03-03T20:48:42;97855.19;;;1.28;87.75
23616;BME280;11985;49.404;7.734;2023-03-03T20:53:53;97855.84;;;1.20;88.51
23616;BME280;11985;49.404;7.734;2023-03-03T20:59:08;97871.13;;;1.14;89.26
23616;BME280;11985;49.404;7.734;2023-03-03T21:04:20;97877.63;;;0.98;89.41
23616;BME280;11985;49.404;7.734;2023-03-03T21:09:28;97876.72;;;0.78;90.00
23616;BME280;11985;49.404;7.734;2023-03-03T21:14:32;97873.72;;;0.83;92.04
23616;BME280;11985;49.404;7.734;2023-03-03T21:19:36;97868.72;;;0.91;92.20
23616;BME280;11985;49.404;7.734;2023-03-03T21:24:49;97868.06;;;0.99;91.95
23616;BME280;11985;49.404;7.734;2023-03-03T21:30:00;97882.50;;;0.92;91.69
23616;BME280;11985;49.404;7.734;2023-03-03T21:35:06;97878.31;;;0.70;90.67
23616;BME280;11985;49.404;7.734;2023-03-03T21:40:12;97874.41;;;0.55;90.82
23616;BME280;11985;49.404;7.734;2023-03-03T21:45:15;97887.19;;;0.46;91.87
23616;BME280;11985;49.404;7.734;2023-03-03T21:50:20;97891.03;;;0.31;92.85
23616;BME280;11985;49.404;7.734;2023-03-03T21:55:22;97882.25;;;0.22;93.51
23616;BME280;11985;49.404;7.734;2023-03-03T22:00:24;97887.00;;;0.17;94.99
23616;BME280;11985;49.404;7.734;2023-03-03T22:05:27;97885.13;;;0.08;96.19
23616;BME280;11985;49.404;7.734;2023-03-03T22:10:29;97879.19;;;-0.04;96.17
23616;BME280;11985;49.404;7.734;2023-03-03T22:15:31;97881.00;;;-0.15;96.89
23616;BME280;11985;49.404;7.734;2023-03-03T22:20:34;97882.13;;;-0.40;96.73
23616;BME280;11985;49.404;7.734;2023-03-03T22:25:37;97889.81;;;-0.50;97.58
23616;BME280;11985;49.404;7.734;2023-03-03T22:30:38;97888.88;;;-0.49;99.08
23616;BME280;11985;49.404;7.734;2023-03-03T22:35:41;97888.28;;;-0.52;100.00
23616;BME280;11985;49.404;7.734;2023-03-03T22:40:43;97883.72;;;-0.60;100.00
23616;BME280;11985;49.404;7.734;2023-03-03T22:45:44;97887.84;;;-0.69;100.00
23616;BME280;11985;49.404;7.734;2023-03-03T22:50:47;97880.69;;;-0.76;100.00
23616;BME280;11985;49.404;7.734;2023-03-03T22:55:49;97896.69;;;-0.83;100.00
23616;BME280;11985;49.404;7.734;2023-03-03T23:00:52;97889.50;;;-0.90;100.00
23616;BME280;11985;49.404;7.734;2023-03-03T23:05:55;97887.25;;;-0.95;100.00
23616;BME280;11985;49.404;7.734;2023-03-03T23:10:56;97896.44;;;-1.02;100.00
23616;BME280;11985;49.404;7.734;2023-03-03T23:15:58;97900.31;;;-1.08;100.00
23616;BME280;11985;49.404;7.734;2023-03-03T23:21:03;97902.69;;;-1.16;100.00
23616;BME280;11985;49.404;7.734;2023-03-03T23:26:04;97909.34;;;-1.24;100.00
23616;BME280;11985;49.404;7.734;2023-03-03T23:31:06;97908.31;;;-1.33;100.00
23616;BME280;11985;49.404;7.734;2023-03-03T23:36:09;97910.41;;;-1.38;100.00
23616;BME280;11985;49.404;7.734;2023-03-03T23:41:10;97907.34;;;-1.43;100.00
23616;BME280;11985;49.404;7.734;2023-03-03T23:46:12;97916.47;;;-1.50;100.00
23616;BME280;11985;49.404;7.734;2023-03-03T23:51:15;97922.22;;;-1.58;100.00
23616;BME280;11985;49.404;7.734;2023-03-03T23:56:17;97929.47;;;-1.63;100.00
